KBFL/BFL METAR and TAF weather

Enter ICAO airport designator
Station Type Date Time Source
KBFL METAR 2018/10/22 15:54 UTC NOAA

KBFL 221554Z 15004KT 10SM CLR 19/04 A2995 RMK AO2 SLP135 T01940039


Station Type Date Time Source
KBFL Decoded METAR 2018/10/22 15:54 UTC NOAA

BAKERSFIELD MEADOWS FIELD, CA, United States (KBFL) 35-26N 119-03W 151M
Oct 22, 2018 - 11:54 AM EDT / 2018.10.22 1554 UTC
Wind: from the SSE (150 degrees) at 5 MPH (4 KT):0
Visibility: 10 mile(s):0
Sky conditions: clear
Temperature: 66.9 F (19.4 C)
Dew Point: 39.0 F (3.9 C)
Relative Humidity: 35%
Pressure (altimeter): 29.95 in. Hg (1014 hPa)
ob: KBFL 221554Z 15004KT 10SM CLR 19/04 A2995 RMK AO2 SLP135 T01940039
cycle: 16

Station Type Date Time Source
KBFL TAF 2018/10/22 12:22 UTC NOAA

TAF KBFL 221120Z 2212/2312 VRB04KT P6SM SKC
FM221900 30007KT P6SM SKC
FM230200 VRB04KT P6SM SKC


Example: see airport list